createdAt,value
2018-09-13T00:00:55.673Z,1015.10
2018-09-13T00:01:55.614Z,1015.12
2018-09-13T00:02:55.590Z,1015.10
2018-09-13T00:03:55.591Z,1015.12
2018-09-13T00:04:55.568Z,1015.13
2018-09-13T00:05:55.916Z,1015.13
2018-09-13T00:06:55.587Z,1015.07
2018-09-13T00:07:55.536Z,1015.03
2018-09-13T00:08:55.490Z,1015.03
2018-09-13T00:09:55.477Z,1015.05
2018-09-13T00:10:55.491Z,1015.07
2018-09-13T00:11:56.112Z,1015.11
2018-09-13T00:12:55.467Z,1015.11
2018-09-13T00:13:55.424Z,1015.08
2018-09-13T00:14:55.417Z,1015.08
2018-09-13T00:15:55.374Z,1015.08
2018-09-13T00:16:55.356Z,1015.10
2018-09-13T00:17:55.638Z,1015.06
2018-09-13T00:18:55.451Z,1015.06
2018-09-13T00:19:55.304Z,1015.07
2018-09-13T00:20:55.376Z,1015.06
2018-09-13T00:21:55.425Z,1015.01
2018-09-13T00:22:55.740Z,1015.02
2018-09-13T00:23:55.767Z,1015.00
2018-09-13T00:24:55.480Z,1014.97
2018-09-13T00:25:55.389Z,1014.94
2018-09-13T00:26:55.347Z,1014.94
2018-09-13T00:27:55.424Z,1014.96
2018-09-13T00:28:55.624Z,1014.97
2018-09-13T00:29:55.628Z,1014.97
2018-09-13T00:30:55.191Z,1014.98
2018-09-13T00:31:55.153Z,1014.98
2018-09-13T00:32:55.261Z,1014.95
2018-09-13T00:33:55.569Z,1014.96
2018-09-13T00:34:55.162Z,1014.96
2018-09-13T00:35:55.563Z,1014.98
2018-09-13T00:36:55.130Z,1015.01
2018-09-13T00:38:55.024Z,1015.02
2018-09-13T00:39:55.018Z,1015.03
2018-09-13T00:40:57.193Z,1015.04
2018-09-13T00:41:55.746Z,1015.02
2018-09-13T00:42:55.286Z,1015.03
2018-09-13T00:43:55.093Z,1014.96
2018-09-13T00:44:55.029Z,1014.93
2018-09-13T00:45:55.001Z,1014.91
2018-09-13T00:46:55.068Z,1014.86
2018-09-13T00:47:55.463Z,1014.81
2018-09-13T00:48:55.346Z,1014.86
2018-09-13T00:49:55.056Z,1014.80
2018-09-13T00:50:54.980Z,1014.75
2018-09-13T00:51:54.932Z,1014.76
2018-09-13T00:52:54.892Z,1014.75
2018-09-13T00:53:54.910Z,1014.79
2018-09-13T00:54:55.331Z,1014.78
2018-09-13T00:55:55.792Z,1014.78
2018-09-13T00:56:55.294Z,1014.85
2018-09-13T00:57:54.747Z,1014.87
2018-09-13T00:58:54.722Z,1014.93
2018-09-13T00:59:54.678Z,1014.97
2018-09-13T01:00:54.722Z,1014.94
2018-09-13T01:01:54.734Z,1014.96
2018-09-13T01:02:55.046Z,1014.94
2018-09-13T01:03:54.608Z,1014.94
2018-09-13T01:04:54.763Z,1014.93
2018-09-13T01:05:54.633Z,1014.89
2018-09-13T01:06:55.124Z,1014.89
2018-09-13T01:07:54.616Z,1014.87
2018-09-13T01:08:54.643Z,1014.88
2018-09-13T01:09:54.921Z,1014.88
2018-09-13T01:10:54.496Z,1014.86
2018-09-13T01:11:54.490Z,1014.89
2018-09-13T01:12:54.516Z,1014.85
2018-09-13T01:13:54.466Z,1014.87
2018-09-13T01:14:55.197Z,1014.89
2018-09-13T01:16:54.761Z,1014.83
2018-09-13T01:17:54.390Z,1014.85
2018-09-13T01:18:54.544Z,1014.81
2018-09-13T01:19:54.352Z,1014.80
2018-09-13T01:20:54.533Z,1014.83
2018-09-13T01:21:54.404Z,1014.84
2018-09-13T01:22:54.424Z,1014.84
2018-09-13T01:23:54.644Z,1014.86
2018-09-13T01:24:54.344Z,1014.86
2018-09-13T01:25:54.682Z,1014.81
2018-09-13T01:26:54.606Z,1014.82
2018-09-13T01:27:54.331Z,1014.83
2018-09-13T01:28:54.225Z,1014.80
2018-09-13T01:29:54.191Z,1014.79
2018-09-13T01:30:54.706Z,1014.78
2018-09-13T01:31:54.711Z,1014.76
2018-09-13T01:32:54.173Z,1014.77
2018-09-13T01:33:54.137Z,1014.81
2018-09-13T01:34:54.254Z,1014.80
2018-09-13T01:36:54.598Z,1014.79
2018-09-13T01:37:54.738Z,1014.77
2018-09-13T01:39:55.169Z,1014.78
2018-09-13T01:40:54.033Z,1014.79
2018-09-13T01:41:53.994Z,1014.82
2018-09-13T01:42:54.328Z,1014.86
2018-09-13T01:43:53.963Z,1014.84
2018-09-13T01:44:53.972Z,1014.87
2018-09-13T01:46:54.079Z,1014.83
2018-09-13T01:47:54.451Z,1014.81
2018-09-13T01:48:54.438Z,1014.81
2018-09-13T01:49:53.883Z,1014.77
2018-09-13T01:50:53.949Z,1014.81
2018-09-13T01:51:53.843Z,1014.83
2018-09-13T01:52:53.833Z,1014.76
2018-09-13T01:53:53.812Z,1014.76
2018-09-13T01:54:54.732Z,1014.76
2018-09-13T01:55:53.780Z,1014.72
2018-09-13T01:56:53.809Z,1014.74
2018-09-13T01:57:53.952Z,1014.69
2018-09-13T01:58:54.290Z,1014.68
2018-09-13T01:59:54.134Z,1014.69
2018-09-13T02:00:54.290Z,1014.61
2018-09-13T02:01:54.228Z,1014.63
2018-09-13T02:02:53.749Z,1014.61
2018-09-13T02:03:53.654Z,1014.60
2018-09-13T02:04:53.794Z,1014.61
2018-09-13T02:05:54.236Z,1014.59
2018-09-13T02:06:54.469Z,1014.61
2018-09-13T02:07:53.717Z,1014.63
2018-09-13T02:08:53.642Z,1014.57
2018-09-13T02:09:55.244Z,1014.61
2018-09-13T02:10:53.537Z,1014.63
2018-09-13T02:11:53.524Z,1014.68
2018-09-13T02:13:53.857Z,1014.65
2018-09-13T02:14:53.614Z,1014.64
2018-09-13T02:15:53.599Z,1014.65
2018-09-13T02:16:53.430Z,1014.66
2018-09-13T02:17:53.787Z,1014.65
2018-09-13T02:18:53.462Z,1014.63
2018-09-13T02:19:53.461Z,1014.65
2018-09-13T02:21:53.841Z,1014.66
2018-09-13T02:22:53.448Z,1014.67
2018-09-13T02:23:53.562Z,1014.66
2018-09-13T02:24:53.463Z,1014.71
2018-09-13T02:25:53.537Z,1014.69
2018-09-13T02:26:53.266Z,1014.68
2018-09-13T02:27:53.261Z,1014.68
2018-09-13T02:28:53.592Z,1014.67
2018-09-13T02:29:53.269Z,1014.65
2018-09-13T02:30:53.623Z,1014.65
2018-09-13T02:31:53.190Z,1014.66
2018-09-13T02:32:53.168Z,1014.62
2018-09-13T02:33:53.179Z,1014.65
2018-09-13T02:34:53.135Z,1014.65
2018-09-13T02:35:53.421Z,1014.65
2018-09-13T02:36:53.152Z,1014.65
2018-09-13T02:37:53.099Z,1014.61
2018-09-13T02:38:53.080Z,1014.66
2018-09-13T02:39:53.074Z,1014.68
2018-09-13T02:40:54.305Z,1014.67
2018-09-13T02:41:53.146Z,1014.68
2018-09-13T02:42:53.570Z,1014.72
2018-09-13T02:43:53.188Z,1014.73
2018-09-13T02:44:53.143Z,1014.71
2018-09-13T02:45:53.435Z,1014.67
2018-09-13T02:46:53.142Z,1014.72
2018-09-13T02:47:53.366Z,1014.69
2018-09-13T02:48:53.143Z,1014.65
2018-09-13T02:49:53.403Z,1014.63
2018-09-13T02:50:53.015Z,1014.63
2018-09-13T02:51:53.039Z,1014.62
2018-09-13T02:52:52.929Z,1014.63
2018-09-13T02:53:53.002Z,1014.61
2018-09-13T02:54:52.826Z,1014.63
2018-09-13T02:55:52.859Z,1014.66
2018-09-13T02:56:53.187Z,1014.65
2018-09-13T02:58:52.751Z,1014.68
2018-09-13T02:59:53.255Z,1014.71
2018-09-13T03:00:52.840Z,1014.69
2018-09-13T03:01:52.910Z,1014.70
2018-09-13T03:02:53.193Z,1014.65
2018-09-13T03:03:53.191Z,1014.66
2018-09-13T03:04:52.815Z,1014.67
2018-09-13T03:05:52.894Z,1014.61
2018-09-13T03:06:52.903Z,1014.63
2018-09-13T03:07:53.064Z,1014.62
2018-09-13T03:08:53.083Z,1014.65
2018-09-13T03:09:52.743Z,1014.58
2018-09-13T03:10:52.623Z,1014.61
2018-09-13T03:11:52.588Z,1014.62
2018-09-13T03:12:52.530Z,1014.57
2018-09-13T03:13:52.920Z,1014.57
2018-09-13T03:14:52.917Z,1014.59
2018-09-13T03:15:52.561Z,1014.56
2018-09-13T03:16:52.959Z,1014.57
2018-09-13T03:17:52.708Z,1014.57
2018-09-13T03:18:52.672Z,1014.57
2018-09-13T03:19:53.251Z,1014.57
2018-09-13T03:20:52.797Z,1014.56
2018-09-13T03:21:52.389Z,1014.58
2018-09-13T03:22:52.786Z,1014.53
2018-09-13T03:23:52.548Z,1014.55
2018-09-13T03:24:52.311Z,1014.57
2018-09-13T03:25:53.125Z,1014.57
2018-09-13T03:26:52.684Z,1014.55
2018-09-13T03:27:52.822Z,1014.54
2018-09-13T03:28:52.395Z,1014.57
2018-09-13T03:29:52.792Z,1014.52
2018-09-13T03:30:52.326Z,1014.52
2018-09-13T03:31:52.401Z,1014.48
2018-09-13T03:32:52.585Z,1014.50
2018-09-13T03:34:52.228Z,1014.53
2018-09-13T03:35:52.579Z,1014.50
2018-09-13T03:36:52.218Z,1014.50
2018-09-13T03:37:52.251Z,1014.49
2018-09-13T03:38:52.591Z,1014.48
2018-09-13T03:39:52.169Z,1014.49
2018-09-13T03:40:52.600Z,1014.50
2018-09-13T03:42:52.178Z,1014.52
2018-09-13T03:43:52.240Z,1014.52
2018-09-13T03:44:52.244Z,1014.53
2018-09-13T03:45:52.295Z,1014.54
2018-09-13T03:46:52.073Z,1014.54
2018-09-13T03:48:52.074Z,1014.52
2018-09-13T03:49:52.107Z,1014.54
2018-09-13T03:50:51.893Z,1014.51
2018-09-13T03:51:53.654Z,1014.53
2018-09-13T03:52:52.087Z,1014.54
2018-09-13T03:53:51.929Z,1014.53
2018-09-13T03:54:51.969Z,1014.57
2018-09-13T03:55:51.867Z,1014.54
2018-09-13T03:56:52.014Z,1014.54
2018-09-13T03:57:51.917Z,1014.58
2018-09-13T03:58:52.244Z,1014.58
2018-09-13T03:59:51.804Z,1014.56
2018-09-13T04:00:52.402Z,1014.57
2018-09-13T04:01:51.891Z,1014.57
2018-09-13T04:02:51.932Z,1014.60
2018-09-13T04:03:51.813Z,1014.58
2018-09-13T04:04:52.229Z,1014.58
2018-09-13T04:05:51.745Z,1014.57
2018-09-13T04:06:51.768Z,1014.62
2018-09-13T04:07:51.773Z,1014.62
2018-09-13T04:08:51.786Z,1014.61
2018-09-13T04:10:51.618Z,1014.58
2018-09-13T04:11:52.000Z,1014.58
2018-09-13T04:12:51.732Z,1014.59
2018-09-13T04:13:51.628Z,1014.61
2018-09-13T04:14:51.759Z,1014.58
2018-09-13T04:15:51.754Z,1014.59
2018-09-13T04:16:51.663Z,1014.65
2018-09-13T04:17:51.541Z,1014.64
2018-09-13T04:18:52.723Z,1014.63
2018-09-13T04:19:52.010Z,1014.68
2018-09-13T04:20:52.095Z,1014.65
2018-09-13T04:21:51.630Z,1014.64
2018-09-13T04:22:51.538Z,1014.68
2018-09-13T04:23:51.393Z,1014.68
2018-09-13T04:24:53.053Z,1014.65
2018-09-13T04:25:51.840Z,1014.65
2018-09-13T04:26:51.372Z,1014.68
2018-09-13T04:27:51.292Z,1014.69
2018-09-13T04:28:51.469Z,1014.70
2018-09-13T04:29:51.336Z,1014.69
2018-09-13T04:30:51.296Z,1014.70
2018-09-13T04:31:51.562Z,1014.69
2018-09-13T04:32:51.219Z,1014.69
2018-09-13T04:33:51.293Z,1014.71
2018-09-13T04:35:51.319Z,1014.69
2018-09-13T04:36:51.213Z,1014.73
2018-09-13T04:37:51.449Z,1014.73
2018-09-13T04:38:51.131Z,1014.75
2018-09-13T04:39:51.166Z,1014.72
2018-09-13T04:40:51.255Z,1014.73
2018-09-13T04:41:51.222Z,1014.71
2018-09-13T04:42:51.212Z,1014.71
2018-09-13T04:43:51.523Z,1014.70
2018-09-13T04:44:51.159Z,1014.68
2018-09-13T04:45:51.173Z,1014.71
2018-09-13T04:46:51.060Z,1014.69
2018-09-13T04:47:51.078Z,1014.72
2018-09-13T04:48:51.085Z,1014.71
2018-09-13T04:49:51.480Z,1014.70
2018-09-13T04:50:50.972Z,1014.74
2018-09-13T04:51:51.309Z,1014.75
2018-09-13T04:53:51.005Z,1014.73
2018-09-13T04:54:50.928Z,1014.73
2018-09-13T04:55:51.342Z,1014.75
2018-09-13T04:57:51.913Z,1014.70
2018-09-13T04:58:50.905Z,1014.72
2018-09-13T05:00:50.789Z,1014.62
2018-09-13T05:01:51.062Z,1014.60
2018-09-13T05:02:51.038Z,1014.53
2018-09-13T05:03:50.769Z,1014.53
2018-09-13T05:04:50.718Z,1014.54
2018-09-13T05:06:50.721Z,1014.50
2018-09-13T05:07:51.015Z,1014.51
2018-09-13T05:08:50.751Z,1014.52
2018-09-13T05:10:50.617Z,1014.53
2018-09-13T05:11:50.668Z,1014.52
2018-09-13T05:12:50.679Z,1014.52
2018-09-13T05:13:50.622Z,1014.55
2018-09-13T05:14:50.926Z,1014.57
2018-09-13T05:15:50.531Z,1014.54
2018-09-13T05:16:50.566Z,1014.59
2018-09-13T05:17:50.560Z,1014.56
2018-09-13T05:18:50.494Z,1014.55
2018-09-13T05:19:50.488Z,1014.60
2018-09-13T05:20:50.450Z,1014.62
2018-09-13T05:21:50.615Z,1014.61
2018-09-13T05:22:50.436Z,1014.63
2018-09-13T05:23:50.456Z,1014.62
2018-09-13T05:24:50.589Z,1014.63
2018-09-13T05:25:50.773Z,1014.61
2018-09-13T05:26:50.570Z,1014.64
2018-09-13T05:27:50.687Z,1014.65
2018-09-13T05:28:50.325Z,1014.64
2018-09-13T05:30:50.294Z,1014.67
2018-09-13T05:31:50.266Z,1014.64
2018-09-13T05:32:50.495Z,1014.66
2018-09-13T05:33:50.307Z,1014.63
2018-09-13T05:38:50.390Z,1014.61
2018-09-13T05:39:50.322Z,1014.61
2018-09-13T05:40:50.255Z,1014.60
2018-09-13T05:41:50.630Z,1014.60
2018-09-13T05:42:50.149Z,1014.60
2018-09-13T05:43:50.135Z,1014.60
2018-09-13T05:44:50.219Z,1014.63
2018-09-13T05:45:50.131Z,1014.58
2018-09-13T05:46:50.029Z,1014.59
2018-09-13T05:47:50.384Z,1014.56
2018-09-13T05:49:50.488Z,1014.60
2018-09-13T05:50:50.028Z,1014.61
2018-09-13T05:51:50.001Z,1014.59
2018-09-13T05:52:50.443Z,1014.65
2018-09-13T05:53:50.066Z,1014.61
2018-09-13T05:54:49.889Z,1014.58
2018-09-13T05:56:50.522Z,1014.56
2018-09-13T05:57:50.426Z,1014.53
2018-09-13T05:58:49.930Z,1014.52
2018-09-13T05:59:50.289Z,1014.55
2018-09-13T06:00:49.809Z,1014.56
2018-09-13T06:01:49.807Z,1014.56
2018-09-13T06:02:49.822Z,1014.54
2018-09-13T06:04:49.902Z,1014.57
2018-09-13T06:05:49.934Z,1014.59
2018-09-13T06:06:50.000Z,1014.57
2018-09-13T06:07:49.852Z,1014.63
2018-09-13T06:08:50.328Z,1014.63
2018-09-13T06:09:49.766Z,1014.62
2018-09-13T06:10:50.058Z,1014.59
2018-09-13T06:11:50.481Z,1014.63
2018-09-13T06:12:49.770Z,1014.62
2018-09-13T06:13:49.774Z,1014.63
2018-09-13T06:14:50.143Z,1014.64
2018-09-13T06:17:51.837Z,1014.63
2018-09-13T06:20:49.855Z,1014.67
2018-09-13T06:21:49.480Z,1014.66
2018-09-13T06:22:49.463Z,1014.64
2018-09-13T06:23:49.562Z,1014.68
2018-09-13T06:24:49.482Z,1014.64
2018-09-13T06:25:49.485Z,1014.70
2018-09-13T06:26:49.529Z,1014.68
2018-09-13T06:27:49.866Z,1014.72
2018-09-13T06:28:49.423Z,1014.70
2018-09-13T06:29:49.418Z,1014.67
2018-09-13T06:30:49.338Z,1014.71
2018-09-13T06:31:49.509Z,1014.72
2018-09-13T06:32:49.653Z,1014.73
2018-09-13T06:33:49.314Z,1014.76
2018-09-13T06:34:49.292Z,1014.74
2018-09-13T06:35:49.321Z,1014.78
2018-09-13T06:36:49.452Z,1014.78
2018-09-13T06:37:49.222Z,1014.77
2018-09-13T06:38:49.514Z,1014.78
2018-09-13T06:39:49.201Z,1014.77
2018-09-13T06:40:49.184Z,1014.78
2018-09-13T06:41:49.350Z,1014.78
2018-09-13T06:42:49.320Z,1014.78
2018-09-13T06:43:49.141Z,1014.79
2018-09-13T06:44:49.117Z,1014.81
2018-09-13T06:45:49.453Z,1014.79
2018-09-13T06:46:49.274Z,1014.79
2018-09-13T06:47:49.124Z,1014.79
2018-09-13T06:48:49.073Z,1014.78
2018-09-13T06:49:49.090Z,1014.80
2018-09-13T06:50:49.219Z,1014.79
2018-09-13T06:51:49.150Z,1014.81
2018-09-13T06:52:49.253Z,1014.80
2018-09-13T06:53:49.310Z,1014.79
2018-09-13T06:54:49.458Z,1014.79
2018-09-13T06:55:48.997Z,1014.80
2018-09-13T06:56:48.938Z,1014.83
2018-09-13T06:57:48.913Z,1014.79
2018-09-13T06:58:49.199Z,1014.79
2018-09-13T06:59:48.946Z,1014.76
2018-09-13T07:00:48.871Z,1014.82
2018-09-13T07:02:48.986Z,1014.75
2018-09-13T07:03:48.831Z,1014.77
2018-09-13T07:04:48.818Z,1014.74
2018-09-13T07:05:49.434Z,1014.76
2018-09-13T07:06:48.768Z,1014.73
2018-09-13T07:07:48.754Z,1014.73
2018-09-13T07:08:48.734Z,1014.75
2018-09-13T07:09:48.736Z,1014.76
2018-09-13T07:10:48.706Z,1014.73
2018-09-13T07:11:49.555Z,1014.74
2018-09-13T07:12:48.998Z,1014.72
2018-09-13T07:13:49.368Z,1014.73
2018-09-13T07:14:48.640Z,1014.77
2018-09-13T07:15:48.743Z,1014.75
2018-09-13T07:16:48.628Z,1014.75
2018-09-13T07:17:48.678Z,1014.78
2018-09-13T07:18:48.738Z,1014.79
2018-09-13T07:19:48.933Z,1014.78
2018-09-13T07:20:48.654Z,1014.81
2018-09-13T07:21:48.524Z,1014.82
2018-09-13T07:22:48.900Z,1014.80
2018-09-13T07:23:48.565Z,1014.80
2018-09-13T07:26:48.818Z,1014.76
2018-09-13T07:27:48.512Z,1014.79
2018-09-13T07:28:48.487Z,1014.80
2018-09-13T07:29:48.480Z,1014.82
2018-09-13T07:30:48.419Z,1014.80
2018-09-13T07:31:48.397Z,1014.82
2018-09-13T07:32:48.733Z,1014.82
2018-09-13T07:33:48.431Z,1014.84
2018-09-13T07:34:48.407Z,1014.86
2018-09-13T07:35:48.482Z,1014.84
2018-09-13T07:36:48.321Z,1014.87
2018-09-13T07:37:48.296Z,1014.87
2018-09-13T07:38:48.630Z,1014.91
2018-09-13T07:39:48.280Z,1014.88
2018-09-13T07:40:48.241Z,1014.92
2018-09-13T07:41:48.299Z,1014.90
2018-09-13T07:42:48.267Z,1014.87
2018-09-13T07:43:48.205Z,1014.87
2018-09-13T07:44:48.497Z,1014.88
2018-09-13T07:45:48.173Z,1014.88
2018-09-13T07:47:48.213Z,1014.88
2018-09-13T07:48:48.135Z,1014.87
2018-09-13T07:49:48.322Z,1014.91
2018-09-13T07:50:48.397Z,1014.88
2018-09-13T07:51:48.105Z,1014.88
2018-09-13T07:52:48.091Z,1014.89
2018-09-13T07:53:48.114Z,1014.91
2018-09-13T07:54:48.045Z,1014.91
2018-09-13T07:55:48.161Z,1014.87
2018-09-13T07:56:48.474Z,1014.89
2018-09-13T07:57:48.053Z,1014.92
2018-09-13T07:58:47.989Z,1014.93
2018-09-13T07:59:48.126Z,1014.95
2018-09-13T08:00:47.973Z,1014.95
2018-09-13T08:01:47.934Z,1014.96
2018-09-13T08:02:48.329Z,1014.97
2018-09-13T08:04:47.936Z,1015.02
2018-09-13T08:05:48.230Z,1015.01
2018-09-13T08:06:47.935Z,1015.06
2018-09-13T08:07:47.884Z,1015.05
2018-09-13T08:08:48.667Z,1015.03
2018-09-13T08:09:47.999Z,1015.02
2018-09-13T08:10:48.216Z,1015.00
2018-09-13T08:11:47.943Z,1014.99
2018-09-13T08:12:48.091Z,1015.01
2018-09-13T08:13:47.783Z,1015.02
2018-09-13T08:14:47.771Z,1015.03
2018-09-13T08:15:47.833Z,1015.04
2018-09-13T08:16:47.754Z,1015.05
2018-09-13T08:17:47.773Z,1015.03
2018-09-13T08:18:47.726Z,1015.02
2018-09-13T08:20:47.978Z,1015.05
2018-09-13T08:21:47.791Z,1015.06
2018-09-13T08:22:47.679Z,1015.08
2018-09-13T08:23:47.686Z,1015.07
2018-09-13T08:24:48.119Z,1015.08
2018-09-13T08:25:47.633Z,1015.09
2018-09-13T08:26:47.601Z,1015.09
2018-09-13T08:27:47.975Z,1015.09
2018-09-13T08:28:47.644Z,1015.11
2018-09-13T08:29:47.595Z,1015.08
2018-09-13T08:30:47.532Z,1015.14
2018-09-13T08:31:47.537Z,1015.14
2018-09-13T08:32:47.505Z,1015.08
2018-09-13T08:33:47.519Z,1015.07
2018-09-13T08:34:47.977Z,1015.09
2018-09-13T08:35:47.525Z,1015.11
2018-09-13T08:36:47.585Z,1015.10
2018-09-13T08:37:47.653Z,1015.11
2018-09-13T08:38:47.599Z,1015.12
2018-09-13T08:40:47.402Z,1015.14
2018-09-13T08:41:47.745Z,1015.12
2018-09-13T08:42:47.428Z,1015.07
2018-09-13T08:43:47.368Z,1015.06
2018-09-13T08:44:47.356Z,1015.05
2018-09-13T08:45:47.369Z,1015.04
2018-09-13T08:46:47.339Z,1015.07
2018-09-13T08:47:47.397Z,1015.09
2018-09-13T08:48:47.740Z,1015.08
2018-09-13T08:49:47.293Z,1015.11
2018-09-13T08:50:47.301Z,1015.10
2018-09-13T08:51:47.261Z,1015.09
2018-09-13T08:52:47.243Z,1015.11
2018-09-13T08:53:47.281Z,1015.11
2018-09-13T08:54:47.424Z,1015.10
2018-09-13T08:55:47.509Z,1015.12
2018-09-13T08:56:47.187Z,1015.10
2018-09-13T08:57:47.331Z,1015.11
2018-09-13T08:58:47.166Z,1015.07
2018-09-13T08:59:47.192Z,1015.07
2018-09-13T09:00:47.203Z,1015.07
2018-09-13T09:01:47.441Z,1015.10
2018-09-13T09:02:47.395Z,1015.05
2018-09-13T09:03:47.201Z,1015.06
2018-09-13T09:04:47.078Z,1015.08
2018-09-13T09:05:47.128Z,1015.12
2018-09-13T09:06:47.408Z,1015.09
2018-09-13T09:07:47.523Z,1015.10
2018-09-13T09:08:47.031Z,1015.13
2018-09-13T09:09:47.081Z,1015.09
2018-09-13T09:10:47.064Z,1015.11
2018-09-13T09:11:49.293Z,1015.08
2018-09-13T09:13:47.282Z,1015.12
2018-09-13T09:14:46.959Z,1015.10
2018-09-13T09:15:47.584Z,1015.15
2018-09-13T09:16:49.391Z,1015.11
2018-09-13T09:17:47.099Z,1015.13
2018-09-13T09:18:47.129Z,1015.13
2018-09-13T09:19:47.458Z,1015.17
2018-09-13T09:20:46.945Z,1015.16
2018-09-13T09:21:46.935Z,1015.15
2018-09-13T09:22:46.854Z,1015.18
2018-09-13T09:23:46.896Z,1015.19
2018-09-13T09:24:46.888Z,1015.16
2018-09-13T09:25:47.174Z,1015.19
2018-09-13T09:26:46.842Z,1015.17
2018-09-13T09:27:46.886Z,1015.18
2018-09-13T09:28:46.824Z,1015.17
2018-09-13T09:29:46.876Z,1015.11
2018-09-13T09:30:46.932Z,1015.14
2018-09-13T09:31:47.117Z,1015.12
2018-09-13T09:32:46.794Z,1015.14
2018-09-13T09:33:46.814Z,1015.11
2018-09-13T09:35:46.862Z,1015.11
2018-09-13T09:36:46.687Z,1015.13
2018-09-13T09:37:46.998Z,1015.10
2018-09-13T09:38:47.017Z,1015.11
2018-09-13T09:39:46.666Z,1015.09
2018-09-13T09:40:46.600Z,1015.14
2018-09-13T09:41:46.728Z,1015.14
2018-09-13T09:42:46.579Z,1015.14
2018-09-13T09:43:46.844Z,1015.12
2018-09-13T09:44:51.193Z,1015.13
2018-09-13T09:45:46.544Z,1015.10
2018-09-13T09:46:46.559Z,1015.16
2018-09-13T09:47:46.580Z,1015.12
2018-09-13T09:48:46.512Z,1015.19
2018-09-13T09:49:46.522Z,1015.20
2018-09-13T09:50:46.592Z,1015.24
2018-09-13T09:51:47.194Z,1015.22
2018-09-13T09:52:46.862Z,1015.26
2018-09-13T09:53:46.514Z,1015.27
2018-09-13T09:54:46.435Z,1015.28
2018-09-13T09:55:46.434Z,1015.25
2018-09-13T09:56:46.409Z,1015.25
2018-09-13T09:57:46.390Z,1015.23
2018-09-13T09:58:46.783Z,1015.24
2018-09-13T09:59:46.420Z,1015.21
2018-09-13T10:00:46.355Z,1015.22
2018-09-13T10:01:46.457Z,1015.27
2018-09-13T10:03:46.323Z,1015.26
2018-09-13T10:04:46.582Z,1015.27
2018-09-13T10:05:46.641Z,1015.32
2018-09-13T10:06:46.563Z,1015.29
2018-09-13T10:07:46.346Z,1015.27
2018-09-13T10:08:46.369Z,1015.32
2018-09-13T10:09:46.438Z,1015.36
2018-09-13T10:10:46.239Z,1015.20
2018-09-13T10:11:46.385Z,1015.18
2018-09-13T10:12:46.711Z,1015.14
2018-09-13T10:13:46.295Z,1015.13
2018-09-13T10:14:46.314Z,1015.06
2018-09-13T10:16:46.855Z,1015.01
2018-09-13T10:17:46.370Z,1015.01
2018-09-13T10:18:46.152Z,1015.03
2018-09-13T10:19:46.959Z,1015.03
2018-09-13T10:20:48.441Z,1015.01
2018-09-13T10:21:46.232Z,1015.02
2018-09-13T10:22:46.149Z,1015.00
2018-09-13T10:23:46.164Z,1014.99
2018-09-13T10:24:48.271Z,1014.93
2018-09-13T10:25:46.217Z,1014.92
2018-09-13T10:26:46.703Z,1014.94
2018-09-13T10:27:46.312Z,1014.90
2018-09-13T10:28:46.983Z,1014.92
2018-09-13T10:29:46.278Z,1014.91
2018-09-13T10:30:46.200Z,1014.91
2018-09-13T10:32:46.954Z,1014.88
2018-09-13T10:34:47.485Z,1014.85
2018-09-13T10:35:46.233Z,1014.87
2018-09-13T10:36:46.053Z,1014.84
2018-09-13T10:37:46.134Z,1014.88
2018-09-13T10:38:46.928Z,1014.89
2018-09-13T10:39:46.597Z,1014.90
2018-09-13T10:40:47.085Z,1014.91
2018-09-13T10:41:46.386Z,1014.91
2018-09-13T10:42:45.911Z,1014.91
2018-09-13T10:43:46.098Z,1014.88
2018-09-13T10:44:47.247Z,1014.87
2018-09-13T10:45:46.566Z,1014.91
2018-09-13T10:46:46.272Z,1014.89
2018-09-13T10:47:56.487Z,1014.90
2018-09-13T10:48:45.928Z,1014.89
2018-09-13T10:49:45.960Z,1014.86
2018-09-13T10:50:46.401Z,1014.85
2018-09-13T10:51:46.185Z,1014.86
2018-09-13T10:52:46.279Z,1014.82
2018-09-13T10:53:46.029Z,1014.84
2018-09-13T10:54:46.027Z,1014.85
2018-09-13T10:55:45.823Z,1014.82
2018-09-13T10:56:47.531Z,1014.78
2018-09-13T10:57:45.758Z,1014.79
2018-09-13T10:59:47.628Z,1014.79
2018-09-13T11:00:47.340Z,1014.79
2018-09-13T11:01:46.029Z,1014.81
2018-09-13T11:02:46.109Z,1014.80
2018-09-13T11:05:45.917Z,1014.81
2018-09-13T11:06:45.828Z,1014.82
2018-09-13T11:07:45.866Z,1014.83
2018-09-13T11:08:46.126Z,1014.82
2018-09-13T11:09:45.676Z,1014.82
2018-09-13T11:10:46.033Z,1014.80
2018-09-13T11:11:45.762Z,1014.79
2018-09-13T11:12:45.588Z,1014.78
2018-09-13T11:13:46.533Z,1014.81
2018-09-13T11:16:45.797Z,1014.80
2018-09-13T11:17:45.697Z,1014.75
2018-09-13T11:18:45.552Z,1014.78
2018-09-13T11:20:46.187Z,1014.77
2018-09-13T11:21:47.044Z,1014.72
2018-09-13T11:22:46.083Z,1014.78
2018-09-13T11:23:45.874Z,1014.80
2018-09-13T11:24:45.452Z,1014.76
2018-09-13T11:25:45.398Z,1014.76
2018-09-13T11:26:45.839Z,1014.78
2018-09-13T11:27:45.438Z,1014.74
2018-09-13T11:28:45.357Z,1014.78
2018-09-13T11:29:45.503Z,1014.76
2018-09-13T11:30:45.705Z,1014.72
2018-09-13T11:31:45.422Z,1014.73
2018-09-13T11:32:45.328Z,1014.72
2018-09-13T11:33:45.401Z,1014.73
2018-09-13T11:35:45.376Z,1014.69
2018-09-13T11:36:45.344Z,1014.67
2018-09-13T11:38:46.034Z,1014.65
2018-09-13T11:39:45.577Z,1014.65
2018-09-13T11:40:45.487Z,1014.63
2018-09-13T11:41:45.299Z,1014.66
2018-09-13T11:42:45.468Z,1014.69
2018-09-13T11:43:46.871Z,1014.66
2018-09-13T11:44:45.586Z,1014.67
2018-09-13T11:46:47.713Z,1014.66
2018-09-13T11:47:45.411Z,1014.72
2018-09-13T11:48:45.173Z,1014.69
2018-09-13T11:49:45.383Z,1014.68
2018-09-13T11:50:45.181Z,1014.65
2018-09-13T11:51:46.429Z,1014.63
2018-09-13T11:52:45.696Z,1014.64
2018-09-13T11:53:45.333Z,1014.58
2018-09-13T11:54:45.209Z,1014.59
2018-09-13T11:55:45.073Z,1014.57
2018-09-13T11:56:45.164Z,1014.58
2018-09-13T11:57:45.113Z,1014.55
2018-09-13T11:58:45.414Z,1014.62
2018-09-13T11:59:46.598Z,1014.56
2018-09-13T12:00:45.086Z,1014.59
2018-09-13T12:01:45.178Z,1014.57
2018-09-13T12:02:44.980Z,1014.56
2018-09-13T12:03:45.246Z,1014.57
2018-09-13T12:04:45.068Z,1014.58
2018-09-13T12:05:47.080Z,1014.54
2018-09-13T12:07:45.534Z,1014.50
2018-09-13T12:09:45.309Z,1014.51
2018-09-13T12:10:45.158Z,1014.50
2018-09-13T12:11:45.208Z,1014.47
2018-09-13T12:12:45.562Z,1014.47
2018-09-13T12:14:45.030Z,1014.45
2018-09-13T12:15:44.996Z,1014.46
2018-09-13T12:16:44.848Z,1014.43
2018-09-13T12:17:44.918Z,1014.45
2018-09-13T12:18:45.147Z,1014.41
2018-09-13T12:19:44.811Z,1014.43
2018-09-13T12:20:44.836Z,1014.45
2018-09-13T12:21:44.759Z,1014.42
2018-09-13T12:22:44.750Z,1014.41
2018-09-13T12:23:47.460Z,1014.39
2018-09-13T12:24:45.145Z,1014.37
2018-09-13T12:25:44.711Z,1014.42
2018-09-13T12:26:44.787Z,1014.43
2018-09-13T12:27:44.706Z,1014.40
2018-09-13T12:28:44.944Z,1014.42
2018-09-13T12:29:44.721Z,1014.39
2018-09-13T12:31:45.431Z,1014.40
2018-09-13T12:32:44.735Z,1014.40
2018-09-13T12:33:44.728Z,1014.43
2018-09-13T12:34:44.607Z,1014.36
2018-09-13T12:35:44.660Z,1014.40
2018-09-13T12:36:44.954Z,1014.40
2018-09-13T12:37:44.624Z,1014.39
2018-09-13T12:38:44.585Z,1014.42
2018-09-13T12:39:46.141Z,1014.43
2018-09-13T12:40:44.544Z,1014.42
2018-09-13T12:41:44.582Z,1014.39
2018-09-13T12:42:45.004Z,1014.36
2018-09-13T12:43:44.554Z,1014.40
2018-09-13T12:44:44.539Z,1014.36
2018-09-13T12:45:44.558Z,1014.35
2018-09-13T12:46:44.538Z,1014.39
2018-09-13T12:47:44.538Z,1014.41
2018-09-13T12:48:44.577Z,1014.40
2018-09-13T12:49:44.890Z,1014.37
2018-09-13T12:50:44.964Z,1014.42
2018-09-13T12:51:44.482Z,1014.40
2018-09-13T12:52:44.464Z,1014.39
2018-09-13T12:53:44.560Z,1014.40
2018-09-13T12:54:44.485Z,1014.40
2018-09-13T12:55:44.377Z,1014.34
2018-09-13T12:56:44.814Z,1014.35
2018-09-13T12:57:44.723Z,1014.33
2018-09-13T12:58:44.334Z,1014.34
2018-09-13T12:59:44.381Z,1014.39
2018-09-13T13:00:44.563Z,1014.36
2018-09-13T13:02:44.753Z,1014.35